East Taunton, MA

8:39 AM EDT on August 22, 2014 (GMT -0400)
Taunton Municipal | Change Station
CLOSE
Current Station
Airport
Location: Taunton,
Elevation: 43 ft
Nearby Weather Stations

Elev 43 ft 41.88 °N, 71.02 °W | Updated 4 minutes ago

Overcast
Overcast
67 °F
Feels Like 67 °F
N
5
Wind Variable Wind from Variable

Today
High -- | Low -- °F
--% Chance of Precip.
Yesterday
High -- | Low -- °F
Precip. -- in
5:59 AM 7:33 PM
Waning Crescent, 8% visible
Pressure 30.07 in
Visibility 9.0 miles
Clouds Mostly Cloudy 500 ft
Overcast 6000 ft
Dew Point 64 °F
Humidity 90%
Rainfall 0.10 in
Snow Depth Not available.
UV 1 out of 12
Pollen 6.00 out of 12
Ozone Good
PM2.5 Good
Flu Activity Not available.
SPECI KTAN 221235Z AUTO VRB04KT 9SM BKN005 OVC060 19/18 A3007 RMK AO2 CIG 004V007 T01940178

More Conditions Fewer Conditions

Pressure 30.07 in
Visibility 9.0 miles
Clouds Mostly Cloudy 500 ft
Overcast 6000 ft
Dew Point 64 °F
Humidity 90%
Rainfall 0.10 in
Snow Depth Not available.
UV 1 out of 12
Pollen 6.00 out of 12
Ozone Good
PM2.5 Good
Flu Activity Not available.
SPECI KTAN 221235Z AUTO VRB04KT 9SM BKN005 OVC060 19/18 A3007 RMK AO2 CIG 004V007 T01940178

More Conditions Fewer Conditions

10-Day Weather Forecast

Almanac

Astronomy

Aug. 22, 2014 Rise Set
Actual Time 5:59 AM EDT 7:33 PM EDT
Civil Twilight 5:30 AM EDT 8:03 PM EDT
Nautical Twilight 4:54 AM EDT 8:38 PM EDT
Astronomical Twilight 4:16 AM EDT 9:16 PM EDT
Moon 3:18 AM EDT 5:41 PM EDT
Length of Visible Light 14h 33m
Length of Day
13h 34m
Tomorrow will be 2m 37s shorter.
Waning Crescent, 8% of the Moon is Illuminated
Today
Waning Crescent
Aug 25
New
Sep 2
First Quarter
Sep 8
Full
Sep 15
Last Quarter

Today's Extremes

State Highs State Lows

Community

WunderPhotos

Upload Photos

1,746,158 photos uploaded!

WunderBlogs® & News

Nearby

Air Quality

  Air Quality AQ Index Pollutant
Yesterday Good
OZONE
Yesterday Good
PM2.5
Current Good
PM2.5
Current Good
OZONE
Friday Good
PM2.5
Friday Good
OZONE

Snow Depth

Station Depth Elevation
No new snow has been reported.

Earthquake Activity

City Distance Mag. Time & Date
No recent earthquake activity has been reported nearby.
Minimum magnitude displayed is 2.5.

Coastal Water Temperatures

Place Temperature
Newport, RI 69.1 °F
Quonset Point, RI 72.0 °F
Conimicut Light, RI 73.0 °F

Nearby Weather Stations